Time;durP1;ratioP1;P1;durP2;ratioP2;P2;SDS_P1;SDS_P2;PMS_P1;PMS_P2;Temp;Humidity;BMP_temperature;BMP_pressure;BME280_temperature;BME280_humidity;BME280_pressure;Samples;Min_cycle;Max_cycle;Signal;HPM_P1;HPM_P2
2022/12/03 00:00:12;;;;;;;17.15;11.23;;;;;;;;;;5074200;28;20027;-66
2022/12/03 00:02:38;;;;;;;18.05;11.25;;;;;;;;;;5073740;28;20355;-66
2022/12/03 00:05:05;;;;;;;21.63;11.95;;;;;;;;;;5074151;28;20020;-66
2022/12/03 00:07:31;;;;;;;18.90;9.93;;;;;;;;;;5073850;28;20397;-66
2022/12/03 00:09:57;;;;;;;18.70;11.35;;;;;;;;;;5073669;28;20029;-66
2022/12/03 00:12:24;;;;;;;18.65;11.68;;;;;;;;;;5073407;28;20032;-66
2022/12/03 00:14:50;;;;;;;17.02;11.00;;;;;;;;;;5073672;28;20013;-66
2022/12/03 00:17:16;;;;;;;18.45;11.30;;;;;;;;;;5073708;28;20047;-66
2022/12/03 00:19:42;;;;;;;25.73;16.13;;;;;;;;;;5073417;28;20503;-66
2022/12/03 00:22:09;;;;;;;19.20;11.13;;;;;;;;;;5087384;28;20032;-66
2022/12/03 00:24:35;;;;;;;25.58;14.13;;;;;;;;;;5093876;28;20024;-66
2022/12/03 00:27:01;;;;;;;19.45;12.05;;;;;;;;;;5093361;28;20028;-66
2022/12/03 00:29:28;;;;;;;18.23;11.55;;;;;;;;;;5093624;28;20030;-66
2022/12/03 00:31:54;;;;;;;16.80;10.82;;;;;;;;;;5093748;28;20020;-66
2022/12/03 00:34:21;;;;;;;18.15;10.55;;;;;;;;;;5093686;28;20085;-66
2022/12/03 00:36:47;;;;;;;15.88;9.98;;;;;;;;;;5093184;28;20560;-66
2022/12/03 00:39:14;;;;;;;17.45;9.93;;;;;;;;;;5093436;28;20063;-66
2022/12/03 00:41:40;;;;;;;16.85;10.00;;;;;;;;;;5092709;28;20028;-66
2022/12/03 00:44:06;;;;;;;17.15;10.30;;;;;;;;;;5093331;28;20030;-66
2022/12/03 00:46:33;;;;;;;17.08;10.55;;;;;;;;;;5093455;28;20032;-66
2022/12/03 00:48:59;;;;;;;17.27;10.50;;;;;;;;;;5093322;28;20032;-66
2022/12/03 00:51:25;;;;;;;15.65;10.60;;;;;;;;;;5093354;28;20024;-65
2022/12/03 00:53:51;;;;;;;17.52;10.98;;;;;;;;;;5093019;28;20031;-66
2022/12/03 00:56:18;;;;;;;17.33;10.30;;;;;;;;;;5093097;28;20022;-66
2022/12/03 00:58:44;;;;;;;19.40;10.88;;;;;;;;;;5092964;28;20028;-66
2022/12/03 01:01:10;;;;;;;19.15;10.75;;;;;;;;;;5092841;28;20028;-66
2022/12/03 01:03:37;;;;;;;13.48;9.02;;;;;;;;;;5092888;28;20024;-66
2022/12/03 01:06:03;;;;;;;16.00;9.88;;;;;;;;;;5092814;28;20857;-66
2022/12/03 01:08:29;;;;;;;17.05;9.80;;;;;;;;;;5092857;28;20032;-66
2022/12/03 01:10:56;;;;;;;17.10;9.70;;;;;;;;;;5092843;28;20027;-65
2022/12/03 01:13:22;;;;;;;15.23;9.20;;;;;;;;;;5092676;28;20032;-66
2022/12/03 01:15:48;;;;;;;13.18;8.48;;;;;;;;;;5092898;28;20042;-66
2022/12/03 01:18:14;;;;;;;13.60;8.82;;;;;;;;;;5092776;28;20032;-66
2022/12/03 01:20:41;;;;;;;11.35;7.47;;;;;;;;;;5092553;28;20058;-66
2022/12/03 01:23:07;;;;;;;16.60;8.32;;;;;;;;;;5092049;28;20024;-66
2022/12/03 01:25:34;;;;;;;13.25;7.15;;;;;;;;;;5092353;28;20024;-65
2022/12/03 01:28:00;;;;;;;17.50;7.68;;;;;;;;;;5092493;28;20024;-66
2022/12/03 01:30:26;;;;;;;12.20;7.82;;;;;;;;;;5092447;28;20028;-66
2022/12/03 01:32:53;;;;;;;12.15;7.82;;;;;;;;;;5092610;28;20020;-66
2022/12/03 01:35:19;;;;;;;12.57;7.80;;;;;;;;;;5092460;28;20026;-66
2022/12/03 01:37:45;;;;;;;14.60;8.15;;;;;;;;;;5092096;28;20034;-69
2022/12/03 01:40:15;;;;;;;12.23;8.00;;;;;;;;;;5092338;28;20052;-66
2022/12/03 01:42:42;;;;;;;12.80;7.90;;;;;;;;;;5071909;28;20024;-66
2022/12/03 01:45:14;;;;;;;11.50;7.70;;;;;;;;;;5072330;28;20020;-66
2022/12/03 01:47:40;;;;;;;12.25;8.00;;;;;;;;;;5072356;28;20035;-66
2022/12/03 01:50:12;;;;;;;12.85;7.50;;;;;;;;;;5072017;28;20396;-66
2022/12/03 01:52:39;;;;;;;13.30;8.30;;;;;;;;;;5071540;28;20028;-66
2022/12/03 01:55:12;;;;;;;20.02;10.73;;;;;;;;;;5072269;28;20020;-66
2022/12/03 01:57:40;;;;;;;17.95;10.95;;;;;;;;;;5072139;28;20040;-66
2022/12/03 02:00:07;;;;;;;19.55;10.80;;;;;;;;;;5071892;28;20028;-65
2022/12/03 02:02:34;;;;;;;20.13;10.40;;;;;;;;;;5071703;28;20097;-66
2022/12/03 02:05:01;;;;;;;22.55;12.15;;;;;;;;;;5071999;28;20497;-66
2022/12/03 02:07:29;;;;;;;19.20;12.00;;;;;;;;;;5071979;28;20020;-65
2022/12/03 02:09:57;;;;;;;21.88;12.10;;;;;;;;;;5071860;28;20025;-66
2022/12/03 02:12:49;;;;;;;20.42;11.27;;;;;;;;;;5070563;28;20028;-66
2022/12/03 02:15:16;;;;;;;20.92;11.50;;;;;;;;;;5069076;28;20039;-66
2022/12/03 02:17:42;;;;;;;19.48;11.55;;;;;;;;;;5071634;28;20037;-66
2022/12/03 02:20:09;;;;;;;19.17;10.57;;;;;;;;;;5087408;28;20021;-66
2022/12/03 02:22:36;;;;;;;15.57;8.70;;;;;;;;;;5088501;28;20032;-66
2022/12/03 02:25:08;;;;;;;14.02;8.60;;;;;;;;;;5092106;28;20028;-66
2022/12/03 02:27:34;;;;;;;14.05;7.80;;;;;;;;;;5092261;28;20032;-66
2022/12/03 02:30:01;;;;;;;14.55;9.02;;;;;;;;;;5074020;28;20028;-66
2022/12/03 02:32:27;;;;;;;14.25;8.48;;;;;;;;;;5091912;28;20042;-66
2022/12/03 02:34:54;;;;;;;11.60;7.45;;;;;;;;;;5077900;28;20028;-66
2022/12/03 02:37:23;;;;;;;13.20;8.63;;;;;;;;;;5095772;28;20438;-65
2022/12/03 02:39:52;;;;;;;11.43;7.70;;;;;;;;;;5095833;28;20055;-66
2022/12/03 02:42:34;;;;;;;13.32;8.50;;;;;;;;;;5078756;28;20035;-66
2022/12/03 02:45:03;;;;;;;13.40;8.60;;;;;;;;;;5074405;28;20031;-66
2022/12/03 02:47:30;;;;;;;15.48;8.68;;;;;;;;;;5075347;28;20024;-66
2022/12/03 02:49:57;;;;;;;15.07;8.65;;;;;;;;;;5075268;28;20412;-66
2022/12/03 02:52:23;;;;;;;14.40;8.43;;;;;;;;;;5074875;28;20477;-66
2022/12/03 02:54:49;;;;;;;12.80;8.27;;;;;;;;;;5075198;28;20027;-66
2022/12/03 02:57:16;;;;;;;14.10;7.97;;;;;;;;;;5074958;28;20472;-66
2022/12/03 02:59:44;;;;;;;14.80;8.63;;;;;;;;;;5075124;28;20020;-65
2022/12/03 03:02:11;;;;;;;12.38;8.40;;;;;;;;;;5074851;28;20017;-66
2022/12/03 03:04:37;;;;;;;15.35;9.25;;;;;;;;;;5075060;28;20021;-66
2022/12/03 03:07:04;;;;;;;11.45;8.02;;;;;;;;;;5074814;28;20106;-65
2022/12/03 03:09:31;;;;;;;12.60;8.32;;;;;;;;;;5074825;28;20020;-66
2022/12/03 03:11:57;;;;;;;11.88;7.93;;;;;;;;;;5074625;28;20029;-66
2022/12/03 03:14:24;;;;;;;13.65;8.90;;;;;;;;;;5074813;28;20035;-66
2022/12/03 03:16:54;;;;;;;13.07;8.73;;;;;;;;;;5074976;28;20036;-66
2022/12/03 03:19:28;;;;;;;14.02;8.60;;;;;;;;;;5074546;28;20499;-65
2022/12/03 03:21:54;;;;;;;12.48;8.27;;;;;;;;;;5086110;28;20032;-66
2022/12/03 03:24:21;;;;;;;14.15;8.57;;;;;;;;;;5094956;28;20020;-66
2022/12/03 03:26:48;;;;;;;13.27;8.75;;;;;;;;;;5077049;28;20028;-66
2022/12/03 03:29:15;;;;;;;13.27;8.48;;;;;;;;;;5094914;28;20030;-66
2022/12/03 03:31:42;;;;;;;12.35;7.95;;;;;;;;;;5076675;28;20032;-66
2022/12/03 03:34:08;;;;;;;12.18;7.57;;;;;;;;;;5094463;28;20027;-65
2022/12/03 03:36:35;;;;;;;9.68;6.57;;;;;;;;;;5094562;28;20489;-66
2022/12/03 03:39:02;;;;;;;14.13;7.28;;;;;;;;;;5094475;28;20089;-66
2022/12/03 03:41:29;;;;;;;10.27;6.88;;;;;;;;;;5084684;28;20029;-66
2022/12/03 03:43:55;;;;;;;9.30;6.60;;;;;;;;;;5073689;28;20035;-66
2022/12/03 03:46:22;;;;;;;12.65;6.13;;;;;;;;;;5073812;28;20016;-66
2022/12/03 03:48:49;;;;;;;12.38;6.90;;;;;;;;;;5073889;28;20404;-66
2022/12/03 03:51:16;;;;;;;15.00;7.50;;;;;;;;;;5056372;28;20028;-66
2022/12/03 03:53:43;;;;;;;14.40;7.85;;;;;;;;;;5074099;28;20500;-66
2022/12/03 03:56:10;;;;;;;13.00;8.27;;;;;;;;;;5074228;28;20056;-66
2022/12/03 03:58:37;;;;;;;13.15;8.48;;;;;;;;;;5074111;28;20039;-66
2022/12/03 04:01:03;;;;;;;11.70;7.25;;;;;;;;;;5074086;28;20025;-66
2022/12/03 04:03:30;;;;;;;12.95;8.30;;;;;;;;;;5073298;28;20028;-66
2022/12/03 04:05:56;;;;;;;14.18;7.97;;;;;;;;;;5073977;28;20021;-66
2022/12/03 04:08:22;;;;;;;12.25;7.70;;;;;;;;;;5074043;28;20027;-66
2022/12/03 04:13:34;;;;;;;11.02;7.43;;;;;;;;;;5073659;28;20021;-66
2022/12/03 04:16:00;;;;;;;13.38;7.63;;;;;;;;;;5073628;28;20035;-65
2022/12/03 04:18:42;;;;;;;12.15;7.45;;;;;;;;;;5073204;28;20036;-65
2022/12/03 04:23:53;;;;;;;11.48;8.25;;;;;;;;;;5093595;28;20028;-66
2022/12/03 04:29:05;;;;;;;11.80;7.47;;;;;;;;;;5093576;28;20039;-66
2022/12/03 04:37:01;;;;;;;10.77;7.30;;;;;;;;;;5093502;28;20024;-66
2022/12/03 04:39:28;;;;;;;12.50;7.30;;;;;;;;;;5093376;28;20070;-65
2022/12/03 04:41:54;;;;;;;12.98;7.53;;;;;;;;;;5093582;28;20031;-66
2022/12/03 04:44:35;;;;;;;11.23;7.20;;;;;;;;;;5093244;28;20035;-65
2022/12/03 04:47:05;;;;;;;13.85;9.18;;;;;;;;;;5093121;28;20020;-66
2022/12/03 04:49:32;;;;;;;15.23;10.70;;;;;;;;;;5093274;28;20275;-66
2022/12/03 04:51:58;;;;;;;18.48;11.68;;;;;;;;;;5093248;28;20023;-66
2022/12/03 04:54:24;;;;;;;16.58;11.63;;;;;;;;;;5093117;28;20109;-66
2022/12/03 04:56:51;;;;;;;18.92;12.55;;;;;;;;;;5092856;28;20039;-66
2022/12/03 04:59:17;;;;;;;14.45;9.52;;;;;;;;;;5093328;28;20024;-64
2022/12/03 05:01:44;;;;;;;20.92;10.95;;;;;;;;;;5074620;28;20510;-65
2022/12/03 05:04:10;;;;;;;18.35;11.05;;;;;;;;;;5093244;28;20020;-65
2022/12/03 05:06:36;;;;;;;16.55;10.57;;;;;;;;;;5092831;28;20427;-66
2022/12/03 05:09:03;;;;;;;12.93;8.70;;;;;;;;;;5093233;28;20032;-65
2022/12/03 05:11:29;;;;;;;13.73;8.93;;;;;;;;;;5092879;28;20591;-66
2022/12/03 05:13:56;;;;;;;13.95;8.52;;;;;;;;;;5093028;28;20093;-66
2022/12/03 05:16:22;;;;;;;14.32;8.18;;;;;;;;;;5092388;28;20392;-65
2022/12/03 05:18:48;;;;;;;11.82;7.70;;;;;;;;;;5092746;28;20073;-66
2022/12/03 05:21:15;;;;;;;12.30;7.82;;;;;;;;;;5092514;28;20435;-66
2022/12/03 05:23:41;;;;;;;12.68;8.05;;;;;;;;;;5091194;28;20481;-65
2022/12/03 05:26:08;;;;;;;12.20;8.15;;;;;;;;;;5092654;28;20469;-66
2022/12/03 05:28:34;;;;;;;11.07;7.38;;;;;;;;;;5092389;28;20032;-65
2022/12/03 05:31:00;;;;;;;14.15;8.38;;;;;;;;;;5092337;28;20480;-66
2022/12/03 05:33:27;;;;;;;13.00;8.27;;;;;;;;;;5092548;28;20034;-65
2022/12/03 05:35:53;;;;;;;15.35;8.25;;;;;;;;;;5092524;28;20054;-66
2022/12/03 05:38:19;;;;;;;14.40;8.98;;;;;;;;;;5092457;28;20039;-65
2022/12/03 05:40:46;;;;;;;15.07;10.07;;;;;;;;;;5070425;28;20424;-66
2022/12/03 05:43:12;;;;;;;21.00;13.23;;;;;;;;;;5053977;28;20046;-66
2022/12/03 05:45:39;;;;;;;18.27;11.82;;;;;;;;;;5071926;28;20025;-66
2022/12/03 05:48:07;;;;;;;15.32;10.25;;;;;;;;;;5072235;28;20023;-64
2022/12/03 05:50:35;;;;;;;14.35;8.70;;;;;;;;;;5072085;28;20073;-65
2022/12/03 05:53:01;;;;;;;16.85;9.25;;;;;;;;;;5072205;28;20469;-66
2022/12/03 05:55:27;;;;;;;13.65;8.52;;;;;;;;;;5072252;28;20029;-65
2022/12/03 05:57:54;;;;;;;19.33;8.60;;;;;;;;;;5071852;28;20058;-65
2022/12/03 06:00:20;;;;;;;13.93;8.77;;;;;;;;;;5071883;28;20017;-65
2022/12/03 06:02:47;;;;;;;13.77;8.20;;;;;;;;;;5071993;28;20033;-65
2022/12/03 06:05:14;;;;;;;11.50;8.32;;;;;;;;;;5072188;28;20043;-65
2022/12/03 06:07:40;;;;;;;27.00;14.88;;;;;;;;;;5074342;28;20031;-65
2022/12/03 06:10:08;;;;;;;36.70;20.58;;;;;;;;;;5078762;28;20028;-65
2022/12/03 06:12:34;;;;;;;15.77;10.13;;;;;;;;;;5078419;28;20028;-66
2022/12/03 06:15:01;;;;;;;16.35;9.50;;;;;;;;;;5078492;28;20055;-65
2022/12/03 06:17:27;;;;;;;15.43;9.60;;;;;;;;;;5078537;28;20029;-66
2022/12/03 06:19:53;;;;;;;15.48;9.93;;;;;;;;;;5078534;28;20027;-66
2022/12/03 06:22:20;;;;;;;17.35;9.45;;;;;;;;;;5093612;28;20036;-66
2022/12/03 06:24:46;;;;;;;14.65;9.02;;;;;;;;;;5098683;28;20407;-66
2022/12/03 06:27:13;;;;;;;15.48;9.63;;;;;;;;;;5098628;28;20386;-65
2022/12/03 06:29:39;;;;;;;11.30;8.02;;;;;;;;;;5098921;28;20054;-65
2022/12/03 06:32:05;;;;;;;11.85;7.72;;;;;;;;;;5098676;28;20028;-65
2022/12/03 06:34:32;;;;;;;14.75;9.38;;;;;;;;;;5098592;28;20026;-66
2022/12/03 06:36:58;;;;;;;14.85;9.30;;;;;;;;;;5098721;28;20034;-66
2022/12/03 06:39:24;;;;;;;14.90;10.05;;;;;;;;;;5098530;28;20044;-66
2022/12/03 06:41:51;;;;;;;16.83;8.88;;;;;;;;;;5085209;28;20035;-66
2022/12/03 06:44:17;;;;;;;15.23;8.82;;;;;;;;;;5077865;28;20028;-66
2022/12/03 06:46:43;;;;;;;16.70;10.90;;;;;;;;;;5078374;28;20039;-65
2022/12/03 06:49:10;;;;;;;14.20;8.98;;;;;;;;;;5078236;28;20513;-66
2022/12/03 06:51:36;;;;;;;16.00;9.50;;;;;;;;;;5078417;28;20021;-66
2022/12/03 06:54:03;;;;;;;19.02;11.93;;;;;;;;;;5078038;28;20396;-66
2022/12/03 06:56:30;;;;;;;16.38;10.05;;;;;;;;;;5078028;28;20027;-66
2022/12/03 06:58:56;;;;;;;18.92;11.55;;;;;;;;;;5077898;28;20028;-65
2022/12/03 07:01:23;;;;;;;16.40;9.18;;;;;;;;;;5078125;28;20405;-66
2022/12/03 07:03:49;;;;;;;22.02;11.55;;;;;;;;;;5078242;28;20036;-66
2022/12/03 07:06:15;;;;;;;13.05;8.82;;;;;;;;;;5078190;28;20020;-65
2022/12/03 07:08:42;;;;;;;18.20;10.25;;;;;;;;;;5078344;28;20028;-66
2022/12/03 07:11:29;;;;;;;34.85;18.20;;;;;;;;;;5078094;28;20027;-66
2022/12/03 07:13:54;;;;;;;88.40;38.30;;;;;;;;;;5077877;28;20037;-66
2022/12/03 07:16:21;;;;;;;32.13;16.58;;;;;;;;;;5078174;28;20027;-66
2022/12/03 07:18:47;;;;;;;27.35;14.27;;;;;;;;;;5077273;28;20044;-66
2022/12/03 07:21:13;;;;;;;16.08;10.57;;;;;;;;;;5081404;28;20016;-66
2022/12/03 07:23:40;;;;;;;16.92;9.18;;;;;;;;;;5094976;28;20377;-66
2022/12/03 07:26:06;;;;;;;18.02;9.90;;;;;;;;;;5094990;28;20031;-66
2022/12/03 07:28:33;;;;;;;16.30;9.93;;;;;;;;;;5095017;28;20480;-66
2022/12/03 07:31:00;;;;;;;14.13;9.70;;;;;;;;;;5095111;28;20022;-66
2022/12/03 07:33:26;;;;;;;13.15;9.38;;;;;;;;;;5094780;28;20085;-66
2022/12/03 07:35:53;;;;;;;18.63;11.63;;;;;;;;;;5094787;28;20030;-66
2022/12/03 07:38:19;;;;;;;101.13;60.13;;;;;;;;;;5076942;28;20028;-66
2022/12/03 07:40:45;;;;;;;66.82;37.60;;;;;;;;;;5089908;28;20040;-66
2022/12/03 07:43:11;;;;;;;25.75;14.90;;;;;;;;;;5074292;28;20032;-66
2022/12/03 07:45:38;;;;;;;20.02;10.70;;;;;;;;;;5074400;28;20020;-66
2022/12/03 07:48:04;;;;;;;16.17;10.48;;;;;;;;;;5074387;28;20477;-66
2022/12/03 07:50:30;;;;;;;15.05;9.50;;;;;;;;;;5074475;28;20024;-66
2022/12/03 07:52:57;;;;;;;14.95;9.38;;;;;;;;;;5074212;28;20021;-66
2022/12/03 07:55:24;;;;;;;17.92;11.27;;;;;;;;;;5073992;28;20019;-66
2022/12/03 07:57:50;;;;;;;18.25;11.55;;;;;;;;;;5074033;28;20028;-66
2022/12/03 08:00:18;;;;;;;15.05;9.70;;;;;;;;;;5074309;28;20024;-66
2022/12/03 08:02:45;;;;;;;16.98;9.75;;;;;;;;;;5074195;28;20028;-66
2022/12/03 08:05:11;;;;;;;15.38;9.65;;;;;;;;;;5073943;28;20023;-66
2022/12/03 08:07:37;;;;;;;18.67;10.68;;;;;;;;;;5074204;28;20032;-65
2022/12/03 08:10:04;;;;;;;19.30;11.32;;;;;;;;;;5056215;28;20035;-66
2022/12/03 08:12:44;;;;;;;17.48;10.55;;;;;;;;;;5074351;28;20025;-66
2022/12/03 08:15:29;;;;;;;22.80;11.80;;;;;;;;;;5074136;28;20393;-66
2022/12/03 08:17:58;;;;;;;20.17;12.13;;;;;;;;;;5073999;28;20029;-66
2022/12/03 08:20:26;;;;;;;17.48;10.70;;;;;;;;;;5073662;28;20021;-66
2022/12/03 08:22:53;;;;;;;14.45;9.23;;;;;;;;;;5094004;28;20028;-66
2022/12/03 08:25:26;;;;;;;13.98;9.05;;;;;;;;;;5093582;28;20028;-66
2022/12/03 08:28:10;;;;;;;22.10;14.07;;;;;;;;;;5092861;28;20032;-66
2022/12/03 08:30:36;;;;;;;23.23;12.13;;;;;;;;;;5093301;28;20024;-65
2022/12/03 08:33:13;;;;;;;26.17;14.48;;;;;;;;;;5093586;28;20028;-65
2022/12/03 08:35:40;;;;;;;30.50;15.07;;;;;;;;;;5093867;28;20121;-65
2022/12/03 08:38:11;;;;;;;25.95;14.10;;;;;;;;;;5093386;28;20042;-66
2022/12/03 08:40:41;;;;;;;27.35;13.15;;;;;;;;;;5090424;28;20047;-64
2022/12/03 08:43:17;;;;;;;15.05;9.00;;;;;;;;;;5073137;28;20028;-66
2022/12/03 08:45:43;;;;;;;15.88;9.45;;;;;;;;;;5072971;28;20024;-66
2022/12/03 08:48:31;;;;;;;17.65;9.75;;;;;;;;;;5073231;28;20466;-66
2022/12/03 08:51:06;;;;;;;12.57;8.35;;;;;;;;;;5073101;28;20051;-65
2022/12/03 08:53:34;;;;;;;15.73;8.98;;;;;;;;;;5072699;28;20490;-66
2022/12/03 08:56:00;;;;;;;13.18;9.52;;;;;;;;;;5072986;28;20039;-66
2022/12/03 08:58:43;;;;;;;16.42;9.40;;;;;;;;;;5072926;28;20043;-66
2022/12/03 09:01:09;;;;;;;15.10;8.98;;;;;;;;;;5072811;28;20081;-66
2022/12/03 09:03:36;;;;;;;14.63;9.23;;;;;;;;;;5055075;28;20031;-66
2022/12/03 09:06:03;;;;;;;16.00;8.80;;;;;;;;;;5072725;28;20142;-66
2022/12/03 09:08:30;;;;;;;13.40;9.10;;;;;;;;;;5072855;28;20033;-66
2022/12/03 09:10:56;;;;;;;15.35;9.73;;;;;;;;;;5072849;28;20023;-66
2022/12/03 09:13:22;;;;;;;23.45;13.07;;;;;;;;;;5072710;28;20382;-66
2022/12/03 09:15:49;;;;;;;55.88;25.02;;;;;;;;;;5072574;28;20027;-66
2022/12/03 09:18:15;;;;;;;46.25;22.88;;;;;;;;;;5072559;28;20043;-66
2022/12/03 09:20:42;;;;;;;36.53;19.25;;;;;;;;;;5073997;28;20020;-65
2022/12/03 09:23:08;;;;;;;66.25;33.35;;;;;;;;;;5092372;28;20024;-66
2022/12/03 09:25:34;;;;;;;45.47;23.65;;;;;;;;;;5092542;28;20016;-66
2022/12/03 09:28:01;;;;;;;22.75;13.73;;;;;;;;;;5092490;28;20036;-66
2022/12/03 09:30:27;;;;;;;19.50;12.52;;;;;;;;;;5092615;28;20057;-66
2022/12/03 09:32:53;;;;;;;11.98;8.57;;;;;;;;;;5074808;28;20024;-66
2022/12/03 09:35:20;;;;;;;30.35;16.45;;;;;;;;;;5092744;28;20028;-66
2022/12/03 09:37:46;;;;;;;27.52;16.60;;;;;;;;;;5092143;28;20028;-66
2022/12/03 09:40:13;;;;;;;16.05;10.68;;;;;;;;;;5092487;28;20036;-66
2022/12/03 09:42:39;;;;;;;12.93;8.20;;;;;;;;;;5071811;28;20033;-66
2022/12/03 09:45:09;;;;;;;15.02;9.50;;;;;;;;;;5072494;28;20017;-66
2022/12/03 09:47:36;;;;;;;15.90;10.13;;;;;;;;;;5072334;28;20477;-66
2022/12/03 09:50:03;;;;;;;16.02;10.43;;;;;;;;;;5091253;28;20028;-66
2022/12/03 09:52:32;;;;;;;17.92;11.18;;;;;;;;;;5092192;28;20035;-66
2022/12/03 09:55:01;;;;;;;16.77;11.10;;;;;;;;;;5092278;28;20016;-66
2022/12/03 09:57:27;;;;;;;15.30;10.27;;;;;;;;;;5092240;28;20035;-66
2022/12/03 09:59:54;;;;;;;15.93;9.52;;;;;;;;;;5091952;28;20031;-66
2022/12/03 10:02:22;;;;;;;16.83;11.45;;;;;;;;;;5074228;28;20020;-66
2022/12/03 10:04:48;;;;;;;16.55;10.48;;;;;;;;;;5074127;28;20085;-66
2022/12/03 10:07:15;;;;;;;12.82;7.97;;;;;;;;;;5090764;28;20061;-66
2022/12/03 10:09:41;;;;;;;11.05;7.63;;;;;;;;;;5091526;28;20507;-66
2022/12/03 10:12:10;;;;;;;11.73;7.60;;;;;;;;;;5091360;28;20504;-65
2022/12/03 10:14:37;;;;;;;10.57;7.22;;;;;;;;;;5091548;28;20069;-65
2022/12/03 10:17:03;;;;;;;11.40;7.40;;;;;;;;;;5090139;28;20038;-65
2022/12/03 10:19:30;;;;;;;12.38;8.38;;;;;;;;;;5092014;28;20024;-65
2022/12/03 10:21:57;;;;;;;14.48;8.40;;;;;;;;;;5091297;28;20038;-66
2022/12/03 10:24:24;;;;;;;11.40;8.25;;;;;;;;;;5091441;28;20019;-65
2022/12/03 10:26:52;;;;;;;16.25;11.00;;;;;;;;;;5091800;28;20020;-66
2022/12/03 10:29:23;;;;;;;16.33;10.18;;;;;;;;;;5092060;28;20031;-66
2022/12/03 10:31:49;;;;;;;;;;;;;;;;;;5092364;28;20024;-65
2022/12/03 10:34:23;;;;;;;16.13;9.98;;;;;;;;;;5091657;28;19910;-66
2022/12/03 10:37:07;;;;;;;16.08;11.65;;;;;;;;;;5074129;28;20050;-66
2022/12/03 10:39:51;;;;;;;14.38;8.57;;;;;;;;;;5091907;28;20048;-65
2022/12/03 10:42:18;;;;;;;12.25;8.55;;;;;;;;;;5091968;28;20028;-65
2022/12/03 10:44:44;;;;;;;11.88;8.25;;;;;;;;;;5091813;28;20034;-65
2022/12/03 10:47:12;;;;;;;15.80;9.82;;;;;;;;;;5091501;28;20012;-65
2022/12/03 10:49:39;;;;;;;13.35;9.13;;;;;;;;;;5091399;28;20496;-65
2022/12/03 10:52:06;;;;;;;11.75;8.05;;;;;;;;;;5073736;28;20435;-65
2022/12/03 10:54:34;;;;;;;11.32;8.27;;;;;;;;;;5093769;28;20054;-65
2022/12/03 10:57:01;;;;;;;12.65;7.90;;;;;;;;;;5095481;28;20038;-66
2022/12/03 10:59:33;;;;;;;11.90;7.70;;;;;;;;;;5095542;28;20051;-66
2022/12/03 11:02:02;;;;;;;13.65;8.00;;;;;;;;;;5095415;28;20077;-65
2022/12/03 11:04:32;;;;;;;16.05;7.88;;;;;;;;;;5094828;28;20034;-66
2022/12/03 11:06:59;;;;;;;12.85;7.10;;;;;;;;;;5095183;28;20020;-65
2022/12/03 11:09:27;;;;;;;11.25;6.85;;;;;;;;;;5095349;28;20020;-66
2022/12/03 11:11:54;;;;;;;10.63;7.32;;;;;;;;;;5077132;28;20027;-66
2022/12/03 11:14:39;;;;;;;10.52;7.43;;;;;;;;;;5095281;28;20399;-66
2022/12/03 11:17:06;;;;;;;12.75;7.45;;;;;;;;;;5095126;28;20054;-66
2022/12/03 11:19:35;;;;;;;12.30;7.18;;;;;;;;;;5094713;28;20024;-66
2022/12/03 11:22:05;;;;;;;11.15;7.03;;;;;;;;;;5064075;28;20028;-66
2022/12/03 11:24:32;;;;;;;10.52;7.43;;;;;;;;;;5074923;28;20032;-66
2022/12/03 11:26:59;;;;;;;9.25;6.78;;;;;;;;;;5074950;28;20021;-66
2022/12/03 11:29:45;;;;;;;8.95;6.55;;;;;;;;;;5074536;28;20519;-66
2022/12/03 11:32:31;;;;;;;10.68;7.50;;;;;;;;;;5074659;28;20392;-66
2022/12/03 11:34:58;;;;;;;11.57;7.97;;;;;;;;;;5074389;28;20497;-66
2022/12/03 11:37:25;;;;;;;16.30;10.90;;;;;;;;;;5073313;28;20040;-66
2022/12/03 11:39:51;;;;;;;17.23;8.77;;;;;;;;;;5074387;28;20037;-66
2022/12/03 11:42:26;;;;;;;12.45;8.40;;;;;;;;;;5090974;28;20388;-66
2022/12/03 11:45:04;;;;;;;14.38;8.43;;;;;;;;;;5094569;28;20032;-66
2022/12/03 11:47:37;;;;;;;12.98;7.90;;;;;;;;;;5094550;28;20031;-66
2022/12/03 11:50:23;;;;;;;11.05;7.70;;;;;;;;;;5094691;28;20051;-66
2022/12/03 11:52:53;;;;;;;11.88;8.43;;;;;;;;;;5094499;28;20023;-66
2022/12/03 11:55:39;;;;;;;15.65;8.50;;;;;;;;;;5094586;28;20024;-66
2022/12/03 11:58:12;;;;;;;11.70;8.30;;;;;;;;;;5094260;28;20028;-66
2022/12/03 12:00:38;;;;;;;29.33;15.02;;;;;;;;;;5094265;28;20027;-65
2022/12/03 12:03:05;;;;;;;17.65;9.70;;;;;;;;;;5094053;28;20024;-66
2022/12/03 12:05:32;;;;;;;19.27;10.82;;;;;;;;;;5093090;28;20020;-66
2022/12/03 12:07:59;;;;;;;19.02;11.45;;;;;;;;;;5076508;28;20105;-66
2022/12/03 12:10:46;;;;;;;17.65;10.95;;;;;;;;;;5076277;28;20469;-66
2022/12/03 12:13:27;;;;;;;22.17;14.10;;;;;;;;;;5094299;28;20077;-66
2022/12/03 12:15:54;;;;;;;27.52;16.95;;;;;;;;;;5093681;28;20027;-66
2022/12/03 12:18:36;;;;;;;30.15;18.60;;;;;;;;;;5093963;28;20032;-66
2022/12/03 12:21:21;;;;;;;31.60;18.77;;;;;;;;;;5093832;28;20020;-66
2022/12/03 12:23:47;;;;;;;33.80;19.48;;;;;;;;;;5093760;28;20388;-66
2022/12/03 12:26:13;;;;;;;56.92;25.27;;;;;;;;;;5093818;28;20024;-66
2022/12/03 12:28:40;;;;;;;98.05;36.17;;;;;;;;;;5093674;28;20020;-66
2022/12/03 12:31:12;;;;;;;81.47;35.75;;;;;;;;;;5093129;28;20094;-66
2022/12/03 12:33:38;;;;;;;48.08;28.10;;;;;;;;;;5093802;28;20023;-66
2022/12/03 12:36:07;;;;;;;46.33;25.50;;;;;;;;;;5093966;28;20036;-66
2022/12/03 12:38:34;;;;;;;35.92;21.70;;;;;;;;;;5093275;28;20042;-65
2022/12/03 12:41:04;;;;;;;44.40;24.83;;;;;;;;;;5087381;28;20039;-66
2022/12/03 12:43:32;;;;;;;50.40;30.77;;;;;;;;;;5073343;28;20021;-66
2022/12/03 12:46:09;;;;;;;68.05;39.92;;;;;;;;;;5072647;28;20515;-66
2022/12/03 12:48:35;;;;;;;65.55;37.58;;;;;;;;;;5072954;28;20482;-66
2022/12/03 12:51:13;;;;;;;52.45;33.17;;;;;;;;;;5073422;28;20031;-66
2022/12/03 12:53:43;;;;;;;50.05;31.02;;;;;;;;;;5073139;28;20031;-66
2022/12/03 12:56:13;;;;;;;44.20;30.17;;;;;;;;;;5072979;28;20016;-67
2022/12/03 12:58:39;;;;;;;36.33;24.20;;;;;;;;;;5072882;28;20041;-66
2022/12/03 13:01:09;;;;;;;42.50;27.00;;;;;;;;;;5072473;28;20023;-66
2022/12/03 13:03:37;;;;;;;47.70;30.40;;;;;;;;;;5072811;28;20063;-67
2022/12/03 13:06:04;;;;;;;61.15;34.17;;;;;;;;;;5072620;28;20047;-66
2022/12/03 13:08:31;;;;;;;61.78;35.92;;;;;;;;;;5073077;28;20024;-66
2022/12/03 13:11:01;;;;;;;62.05;34.35;;;;;;;;;;5054835;28;20035;-66
2022/12/03 13:13:35;;;;;;;56.90;31.52;;;;;;;;;;5072598;28;20481;-66
2022/12/03 13:16:01;;;;;;;39.30;25.55;;;;;;;;;;5072289;28;20021;-66
2022/12/03 13:18:27;;;;;;;29.92;18.20;;;;;;;;;;5072330;28;20021;-67
2022/12/03 13:20:54;;;;;;;52.75;34.35;;;;;;;;;;5075895;28;20028;-67
2022/12/03 13:23:29;;;;;;;34.45;22.73;;;;;;;;;;5092709;28;20024;-66
2022/12/03 13:25:56;;;;;;;39.63;24.52;;;;;;;;;;5092462;28;20550;-66
2022/12/03 13:28:23;;;;;;;37.83;22.92;;;;;;;;;;5092375;28;20511;-66
2022/12/03 13:30:49;;;;;;;35.05;22.23;;;;;;;;;;5092486;28;20028;-66
2022/12/03 13:33:24;;;;;;;35.83;22.40;;;;;;;;;;5092596;28;20030;-65
2022/12/03 13:35:55;;;;;;;37.15;22.05;;;;;;;;;;5092553;28;20386;-66
2022/12/03 13:38:22;;;;;;;37.05;22.08;;;;;;;;;;5092597;28;20501;-66
2022/12/03 13:40:59;;;;;;;34.10;22.63;;;;;;;;;;5088102;28;20029;-66
2022/12/03 13:43:28;;;;;;;34.55;20.70;;;;;;;;;;5072039;28;20020;-67
2022/12/03 13:45:54;;;;;;;31.30;19.90;;;;;;;;;;5072290;28;20017;-67
2022/12/03 13:48:31;;;;;;;36.20;20.63;;;;;;;;;;5072124;28;20493;-66
2022/12/03 13:50:59;;;;;;;29.92;19.48;;;;;;;;;;5087836;28;20029;-66
2022/12/03 13:53:26;;;;;;;27.85;19.00;;;;;;;;;;5070652;28;20035;-66
2022/12/03 13:56:11;;;;;;;23.77;16.58;;;;;;;;;;5071921;28;20371;-67
2022/12/03 13:58:37;;;;;;;33.40;21.30;;;;;;;;;;5071370;28;20431;-66
2022/12/03 14:01:04;;;;;;;52.80;28.10;;;;;;;;;;5072058;28;20016;-66
2022/12/03 14:03:30;;;;;;;39.67;22.58;;;;;;;;;;5072310;28;20028;-66
2022/12/03 14:05:56;;;;;;;57.15;28.70;;;;;;;;;;5070563;28;20478;-66
2022/12/03 14:08:22;;;;;;;22.38;13.57;;;;;;;;;;5071902;28;20409;-66
2022/12/03 14:10:49;;;;;;;21.75;11.98;;;;;;;;;;5071807;28;20028;-67
2022/12/03 14:13:15;;;;;;;20.88;11.10;;;;;;;;;;5071689;28;20553;-66
2022/12/03 14:15:42;;;;;;;21.35;11.98;;;;;;;;;;5071868;28;20032;-67
2022/12/03 14:18:08;;;;;;;28.83;16.48;;;;;;;;;;5071802;28;20028;-66
2022/12/03 14:20:35;;;;;;;26.70;16.73;;;;;;;;;;5072210;28;20021;-66
2022/12/03 14:23:01;;;;;;;26.80;17.20;;;;;;;;;;5092347;28;20027;-66
2022/12/03 14:25:28;;;;;;;18.58;11.55;;;;;;;;;;5091910;28;20034;-66
2022/12/03 14:27:54;;;;;;;18.15;10.98;;;;;;;;;;5091665;28;20032;-66
2022/12/03 14:30:20;;;;;;;15.15;8.57;;;;;;;;;;5095215;28;20400;-66
2022/12/03 14:32:47;;;;;;;12.07;7.65;;;;;;;;;;5095991;28;20032;-66
2022/12/03 14:35:13;;;;;;;12.93;7.80;;;;;;;;;;5096066;28;20023;-67
2022/12/03 14:37:39;;;;;;;10.68;6.72;;;;;;;;;;5095839;28;20497;-66
2022/12/03 14:40:07;;;;;;;8.85;6.00;;;;;;;;;;5095811;28;20050;-66
2022/12/03 14:42:35;;;;;;;10.07;5.63;;;;;;;;;;5076251;28;20512;-66